Romulus, MI (48174)

18:32 EDT 24. Září 2016 (GMT -0400)
Near I-94/275 | | Change Station

Výška 679 ft 42.22 °N, 83.40 °W | Updated 16 seconds ago

Partly Cloudy
Částečně oblačno
69.5 °F
Pocit jako 69.5 °F
S
0.0
Vítr proměnlivý Vítr od SSZ
Gusts 2.0 mil/h

Dnes
Vysoké -- | Nízké -- °F
--% Možnost srážek
Včera
Vysoké -- | Nízké -- °F
Precip. -- inčů
Tlak 30.20 inčů
Viditelnost 10.0 mílí
Zataženo Nemnoho 3000 ft
Rosný bod 51 °F
Vlhkost 51%
Dešťové srážky 0.00 inčů
Sněhová pokrývka Není k dispozici
7:23 AM 7:26 PM
Ubývající srpek, 34% visible
METAR KDTW 242153Z 07006KT 10SM FEW030 21/09 A3020 RMK AO2 SLP227 T02060089
Tlak 30.20 inčů
Viditelnost 10.0 mílí
Zataženo Nemnoho 3000 ft
Rosný bod 51 °F
Vlhkost 51%
Dešťové srážky 0.00 inčů
Sněhová pokrývka Není k dispozici
7:23 AM 7:26 PM
Ubývající srpek, 34% visible
METAR KDTW 242153Z 07006KT 10SM FEW030 21/09 A3020 RMK AO2 SLP227 T02060089

10-Day Weather Forecast

Almanac

Astronomie

Sep. 24, 2016 Východ Západ
Skutečný čas
Občanský soumrak
Námořní soumrak
Astronomický soumrak
Měsíc
Délka denního světla
Délka dne
Tomorrow will be .
, % of the Moon is Illuminated

Dnešní extrémy

State Highs State Lows

Community

WunderPhotos

Upload Photos

1,941,451 snímků staženo!

WunderBlog® & News

Nearby

Kvalita ovzduší

  Kvalita ovzduší Index kvality ovzduší Polutant
Not available.

Výška sněhu

Station Hloubka Nadmořská výška

Seizmická činnost

Město Distance Mag. Čas & datum
Minimální zobrazený rozsah je 2.5.

Pobřežní teplota vody

Lokalita Teplota

Stations

Poblíž povětrnostní stanice

Lokace stanice Tepl. Ochlazování větrem Rosný bod Vlhkost Vítr Precip. Výška Čas hlášení Typ
                   

Watches & Warnings

There are currently no watches in effect.